• Join FlightAware (Why Join?)
  • Login
  • US Flag 
03:34AM EDT


 

Airport Tracker/Info


-or-


 

Live Flight TrackerFlight Track Log ✈ EJA982 ✈ 28-Jul-2013 ✈ KLAS - CYYZ

Flight Track Log - Related Links

Times and Time Zones

All times are in EDT time to prevent confusion due to time zone crossing. See the EJA982 flight status page for this flight to view local times or setup timezone preferences in your user account.

Time Position Orientation Groundspeed Altitude Reporting Facility
EDT Latitude Longitude Course Direction KTS MPH feet Rate Location/Type
01:07PM 36.0772 -115.1731 271° West 276 318 3,100  Level Los Angeles Center
01:08PM 36.0789 -115.2614 271° West 212 244 7,100 3,180 Climbing Los Angeles Center
01:09PM 36.1333 -115.2942 334° Northwest 231 266 10,800 3,300 Climbing Los Angeles Center
01:10PM 36.1867 -115.2150 50° Northeast 287 330 14,000 2,220 Climbing Los Angeles Center
01:11PM 36.1981 -115.1000 83° East 348 400 15,500 1,200 Climbing Los Angeles Center
01:12PM 36.1978 -114.9669 90° East 385 443 16,600 1,320 Climbing Los Angeles Center
01:13PM 36.1983 -114.8267 90° East 405 466 18,300 1,500 Climbing Los Angeles Center
01:14PM 36.1972 -114.6842 91° East 414 476 19,700 1,380 Climbing Los Angeles Center
01:15PM 36.1958 -114.5200 91° East 420 483 21,200 1,200 Climbing Los Angeles Center
01:16PM 36.1953 -114.3631 90° East 427 491 22,200 840 Climbing Los Angeles Center
01:17PM 36.1964 -114.2108 89° East 436 502 23,000 720 Climbing Los Angeles Center
01:18PM 36.2153 -114.0569 81° East 447 514 23,800 900 Climbing Los Angeles Center
01:19PM 36.2339 -113.9011 82° East 455 524 24,900 960 Climbing Los Angeles Center
01:20PM 36.2522 -113.7417 82° East 463 533 25,900 960 Climbing Los Angeles Center
01:22PM 36.2739 -113.5500 82° East 468 539 26,900 780 Climbing Los Angeles Center
01:23PM 36.2922 -113.3858 82° East 478 550 27,600 960 Climbing Los Angeles Center
01:24PM 36.3133 -113.2250 81° East 483 556 28,900 1,320 Climbing Los Angeles Center
01:25PM 36.3667 -113.0736 66° East 481 554 30,400 1,140 Climbing Los Angeles Center
01:26PM 36.4228 -112.9228 65° Northeast 482 555 31,300 1,020 Climbing Los Angeles Center
01:27PM 36.4917 -112.7378 65° Northeast 492 566 32,600 960 Climbing Los Angeles Center
01:28PM 36.5406 -112.5794 69° East 493 567 33,400 720 Climbing Los Angeles Center
01:29PM 36.5764 -112.4100 75° East 505 581 34,200 1,020 Climbing Los Angeles Center
01:30PM 36.6103 -112.2411 76° East 506 582 35,600 1,140 Climbing Los Angeles Center
01:31PM 36.6450 -112.0731 76° East 505 581 36,600 1,200 Climbing Los Angeles Center
01:32PM 36.6928 -111.8706 74° East 510 587 38,100 1,140 Climbing Los Angeles Center
01:33PM 36.7375 -111.7019 72° East 513 590 39,000 420 Climbing Los Angeles Center
01:34PM 36.8053 -111.5381 63° Northeast 539 620 39,000  Level Los Angeles Center
01:35PM 36.8522 -111.3578 72° East 545 627 39,000  Level Los Angeles Center
01:36PM 36.8958 -111.1722 74° East 555 639 39,000  Level Los Angeles Center
01:37PM 36.9675 -110.8731 73° East 566 651 39,000  Level Denver Center
01:39PM 37.0125 -110.6850 73° East 568 654 39,000  Level Denver Center
01:40PM 37.0556 -110.4969 74° East 565 650 39,000  Level Denver Center
01:41PM 37.0978 -110.3092 74° East 563 648 39,000  Level Denver Center
01:42PM 37.1464 -110.1078 73° East 570 656 39,000  Level Denver Center
01:43PM 37.1944 -109.8961 74° East 566 651 39,000  Level Denver Center
01:44PM 37.2350 -109.7150 74° East 562 647 39,000  Level Denver Center
01:45PM 37.2831 -109.5017 74° East 565 650 39,000  Level Denver Center
01:46PM 37.3244 -109.3178 74° East 569 655 39,000  Level Denver Center
01:47PM 37.3714 -109.1044 74° East 566 651 39,000  Level Denver Center
01:48PM 37.4064 -108.9186 77° East 568 654 39,000  Level Denver Center
01:49PM 37.4403 -108.7339 77° East 567 652 39,000  Level Denver Center
01:50PM 37.4800 -108.5164 77° East 567 652 39,000  Level Denver Center
01:51PM 37.5139 -108.3289 77° East 571 657 39,000  Level Denver Center
01:52PM 37.5519 -108.1111 78° East 570 656 39,000  Level Denver Center
01:53PM 37.5858 -107.9258 77° East 568 654 39,000  Level Denver Center
01:54PM 37.6242 -107.7094 77° East 567 652 39,000  Level Denver Center
01:55PM 37.6561 -107.5217 78° East 569 655 39,000  Level Denver Center
01:56PM 37.6939 -107.3031 78° East 571 657 39,000  Level Denver Center
01:57PM 37.7256 -107.1164 78° East 569 655 39,000  Level Denver Center
01:58PM 37.7625 -106.8975 78° East 570 656 39,000  Level Denver Center
01:59PM 37.7903 -106.7094 79° East 569 655 39,000  Level Denver Center
02:00PM 37.8050 -106.4858 85° East 571 657 39,000  Level Denver Center
02:01PM 37.8092 -106.2939 88° East 571 657 39,000  Level Denver Center
02:02PM 37.7983 -106.1031 94° East 571 657 39,000  Level Denver Center
02:03PM 37.8100 -105.8783 86° East 571 657 39,000  Level Denver Center
02:04PM 37.8414 -105.6900 78° East 573 659 39,000  Level Denver Center
02:05PM 37.8783 -105.4711 78° East 570 656 39,000  Level Denver Center
02:06PM 37.9106 -105.2814 78° East 573 659 39,000  Level Denver Center
02:08PM 37.9478 -105.0597 78° East 577 664 39,000  Level Denver Center
02:09PM 37.9786 -104.8714 78° East 570 656 39,000  Level Denver Center
02:10PM 38.0156 -104.6506 78° East 572 658 39,000  Level Denver Center
02:11PM 38.0456 -104.4625 78° East 568 654 39,000  Level Denver Center
02:12PM 38.0797 -104.2417 79° East 568 654 39,000  Level Denver Center
02:13PM 38.1100 -104.0508 79° East 571 657 39,000  Level Denver Center
02:14PM 38.1394 -103.8600 79° East 572 658 39,000  Level Denver Center
02:15PM 38.1739 -103.6361 79° East 575 662 39,000  Level Denver Center
02:16PM 38.2025 -103.4453 79° East 574 661 39,000  Level Denver Center
02:17PM 38.2356 -103.2222 79° East 573 659 39,000  Level Denver Center
02:18PM 38.2669 -103.0117 79° East 575 662 39,000  Level Denver Center
02:19PM 38.2958 -102.8197 79° East 577 664 39,000  Level Denver Center
02:20PM 38.3317 -102.5647 80° East 575 662 39,000  Level Denver Center
02:21PM 38.3578 -102.3739 80° East 573 659 39,000  Level Denver Center
02:22PM 38.3892 -102.1511 80° East 571 657 39,000  Level Denver Center
02:23PM 38.4147 -101.9600 80° East 571 657 39,000  Level Denver Center
02:24PM 38.4464 -101.7364 80° East 573 659 39,000  Level Denver Center
02:25PM 38.4717 -101.5439 80° East 572 658 39,000  Level Denver Center
02:26PM 38.5011 -101.3203 80° East 571 657 39,000  Level Denver Center
02:27PM 38.5264 -101.1283 80° East 571 657 39,000  Level Denver Center
02:28PM 38.5508 -100.9347 81° East 574 661 39,000  Level Denver Center
02:29PM 38.5797 -100.7122 81° East 567 652 39,000  Level Denver Center
02:30PM 38.5992 -100.5500 81° East 569 655 39,000  Level Kansas City Center
02:31PM 38.6225 -100.3581 81° East 569 655 39,000  Level Kansas City Center
02:32PM 38.6458 -100.1661 81° East 569 655 39,000  Level Kansas City Center
02:33PM 38.6725 -99.9436 81° East 568 654 39,000  Level Kansas City Center
02:34PM 38.6958 -99.7503 81° East 572 658 39,000  Level Kansas City Center
02:35PM 38.7211 -99.5272 82° East 568 654 39,000  Level Kansas City Center
02:36PM 38.7406 -99.3514 82° East 568 654 39,000  Level Kansas City Center
02:37PM 38.7694 -99.1092 81° East 574 661 39,000  Level Kansas City Center
02:38PM 38.7911 -98.9089 82° East 568 654 39,000  Level Kansas City Center
02:39PM 38.8133 -98.7078 82° East 566 651 39,000  Level Kansas City Center
02:41PM 38.8350 -98.5069 82° East 567 652 39,000  Level Kansas City Center
02:42PM 38.8569 -98.3050 82° East 571 657 39,000  Level Kansas City Center
02:43PM 38.8772 -98.1044 83° East 567 652 39,000  Level Kansas City Center
02:44PM 38.8978 -97.9028 82° East 567 652 39,000  Level Kansas City Center
02:45PM 38.9228 -97.6606 82° East 561 646 39,000  Level Kansas City Center
02:46PM 38.9664 -97.4689 74° East 569 655 39,000  Level Kansas City Center
02:47PM 39.0122 -97.2936 71° East 558 642 39,000  Level Kansas City Center
02:48PM 39.0694 -97.0839 71° East 555 639 39,000  Level Kansas City Center
02:49PM 39.1175 -96.9047 71° East 554 638 39,000  Level Kansas City Center
02:50PM 39.1706 -96.6931 72° East 556 640 39,000  Level Kansas City Center
02:51PM 39.2167 -96.5119 72° East 555 639 39,000  Level Kansas City Center
02:52PM 39.2697 -96.2975 72° East 552 635 39,000  Level Kansas City Center
02:53PM 39.3147 -96.1186 72° East 553 636 39,000  Level Kansas City Center
02:54PM 39.3678 -95.9056 72° East 556 640 39,000  Level Kansas City Center
02:55PM 39.4139 -95.7228 72° East 556 640 39,000  Level Kansas City Center
02:56PM 39.4589 -95.5369 73° East 560 644 39,000  Level Kansas City Center
02:57PM 39.5153 -95.3081 72° East 556 640 39,000  Level Kansas City Center
02:58PM 39.5567 -95.1356 73° East 558 642 39,000  Level Kansas City Center
02:59PM 39.6078 -94.9200 73° East 556 640 39,000  Level Kansas City Center
03:00PM 39.6528 -94.7350 72° East 558 642 39,000  Level Kansas City Center
03:01PM 39.7039 -94.5172 73° East 563 648 39,000  Level Kansas City Center
03:02PM 39.7472 -94.3311 73° East 561 646 39,000  Level Kansas City Center
03:03PM 39.7900 -94.1436 73° East 563 648 39,000  Level Kansas City Center
03:04PM 39.8381 -93.9258 74° East 564 649 39,000  Level Kansas City Center
03:05PM 39.8819 -93.7344 73° East 559 643 39,000  Level Kansas City Center
03:06PM 39.9247 -93.5428 74° East 556 640 39,000  Level Kansas City Center
03:07PM 39.9686 -93.3483 74° East 562 647 39,000  Level Kansas City Center
03:08PM 40.0206 -93.1167 74° East 563 648 39,000  Level Kansas City Center
03:09PM 40.0625 -92.9233 74° East 562 647 39,000  Level Kansas City Center
03:11PM 40.1072 -92.7114 75° East 560 644 39,000  Level Kansas City Center
03:12PM 40.1478 -92.5206 74° East 565 650 39,000  Level Kansas City Center
03:13PM 40.1931 -92.3097 74° East 561 646 39,000  Level Kansas City Center
03:14PM 40.2328 -92.1167 75° East 560 644 39,000  Level Kansas City Center
03:15PM 40.2722 -91.9197 75° East 565 650 39,000  Level Kansas City Center
03:16PM 40.3108 -91.7231 76° East 565 650 39,000  Level Kansas City Center
03:17PM 40.3583 -91.4847 75° East 568 654 39,000  Level Kansas City Center
03:18PM 40.3983 -91.2850 75° East 570 656 39,000  Level Kansas City Center
03:19PM 40.4403 -91.0700 76° East 569 655 39,000  Level Kansas City Center
03:20PM 40.4778 -90.8694 76° East 567 652 39,000  Level Kansas City Center
03:21PM 40.5167 -90.6689 76° East 567 652 39,000  Level Kansas City Center
03:22PM 40.5556 -90.4678 76° East 567 652 39,000  Level Kansas City Center
03:23PM 40.5931 -90.2669 76° East 568 654 39,000  Level Kansas City Center
03:24PM 40.6333 -90.0492 76° East 568 654 39,000  Level Kansas City Center
03:25PM 40.6725 -89.8375 76° East 568 654 39,000  Level Kansas City Center
03:26PM 40.7019 -89.6283 79° East 573 659 39,000  Level Kansas City Center
03:27PM 40.7292 -89.4294 80° East 570 656 39,000  Level Kansas City Center
03:28PM 40.7617 -89.1856 80° East 566 651 39,000  Level Kansas City Center
03:29PM 40.7947 -88.9397 80° East 569 655 39,000  Level Chicago Center
03:30PM 40.8233 -88.7342 80° East 570 656 39,000  Level Chicago Center
03:31PM 40.8731 -88.5414 71° East 552 635 39,000  Level Chicago Center
03:32PM 40.9250 -88.3511 70° East 552 635 39,000  Level Chicago Center
03:33PM 40.9869 -88.1239 70° East 548 631 39,000  Level Chicago Center
03:35PM 41.0378 -87.9347 70° East 548 631 39,000  Level Chicago Center
03:36PM 41.0878 -87.7450 71° East 545 627 39,000  Level Chicago Center
03:37PM 41.1378 -87.5542 71° East 548 631 39,000  Level Chicago Center
03:38PM 41.1844 -87.3767 71° East 545 627 39,000  Level Chicago Center
03:39PM 41.2442 -87.1467 71° East 548 631 39,000  Level Chicago Center
03:40PM 41.2931 -86.9556 71° East 549 632 39,000  Level Chicago Center
03:41PM 41.3417 -86.7633 71° East 550 633 39,000  Level Chicago Center
03:42PM 41.3906 -86.5689 71° East 552 635 39,000  Level Chicago Center
03:43PM 41.4394 -86.3758 71° East 552 635 39,000  Level Chicago Center
03:44PM 41.4975 -86.1436 71° East 552 635 39,000  Level Chicago Center
03:45PM 41.5522 -85.9528 69° East 553 636 39,000  Level Chicago Center
03:46PM 41.6211 -85.7731 63° Northeast 547 629 39,000 -300 Level Chicago Center
03:47PM 41.6911 -85.5900 63° Northeast 545 627 38,500 -480 Descending Chicago Center
03:48PM 41.7619 -85.3956 64° Northeast 558 642 38,000 -360 Descending Chicago Center
03:49PM 41.8317 -85.2075 63° Northeast 556 640 37,800 -420 Descending Chicago Center
03:50PM 41.9003 -85.0194 64° Northeast 559 643 37,200 -420 Descending Chicago Center
03:51PM 41.9689 -84.8314 64° Northeast 561 646 37,000 -120 Descending Chicago Center
03:52PM 42.0414 -84.6306 64° Northeast 554 638 37,000  Level Chicago Center
03:53PM 42.1081 -84.4447 64° Northeast 553 636 37,000  Level Chicago Center
03:54PM 42.1628 -84.2894 65° Northeast 550 633 37,000  Level Cleveland Center
03:55PM 42.2292 -84.0997 65° Northeast 550 633 37,000 -480 Level Cleveland Center
03:56PM 42.2953 -83.9125 64° Northeast 550 633 36,100 -1,020 Descending Cleveland Center
03:57PM 42.3653 -83.7194 64° Northeast 556 640 35,000 -600 Descending Cleveland Center
03:58PM 42.4200 -83.5450 67° East 556 640 35,000  Level Cleveland Center
03:59PM 42.4750 -83.3478 69° East 556 640 35,000  Level Cleveland Center
04:00PM 42.5253 -83.1525 71° East 551 634 35,000 -240 Level Cleveland Center
04:01PM 42.5775 -82.9544 70° East 551 634 34,600 -1,140 Descending Cleveland Center
04:02PM 42.6294 -82.7533 71° East 551 634 32,800 -2,100 Descending Cleveland Center
04:03PM 42.6831 -82.5489 70° East 563 648 30,400 -1,800 Descending Cleveland Center
04:04PM 42.7364 -82.3472 70° East 563 648 29,300 -720 Descending Cleveland Center
04:05PM 42.7850 -82.1533 71° East 556 640 29,000 -180 Descending Cleveland Center
04:06PM 42.8417 -81.9564 69° East 556 640 29,000  Level Cleveland Center
04:07PM 42.9000 -81.8000 63° Northeast 560 644 29,000 -540 Level Toronto Center
04:08PM 42.9667 -81.6167 64° Northeast 550 633 28,100 -1,740 Descending Toronto Center
04:09PM 43.0333 -81.4167 65° Northeast 550 633 25,600 -2,220 Descending Toronto Center
04:10PM 43.1000 -81.2500 61° Northeast 530 610 23,700 -1,800 Descending Toronto Center
04:11PM 43.1667 -81.0667 63° Northeast 520 598 22,000 -1,980 Descending Toronto Center
04:12PM 43.2333 -80.9167 59° Northeast 500 575 19,800 -2,280 Descending Toronto Center
04:13PM 43.3000 -80.7500 61° Northeast 490 564 17,500 -2,400 Descending Toronto Center
04:14PM 43.3667 -80.6000 59° Northeast 470 541 15,100 -2,100 Descending Toronto Center
04:15PM 43.4167 -80.4333 68° East 430 495 13,300 -1,080 Descending Toronto Center
04:16PM 43.4667 -80.3167 59° Northeast 360 414 13,000 -300 Descending Toronto Center
04:17PM 43.5000 -80.2000 68° East 340 391 12,700 -720 Descending Toronto Center
04:18PM 43.5167 -80.1000 77° East 340 391 11,600 -1,200 Descending Toronto Center
04:19PM 43.5500 -79.9833 68° East 330 380 10,300 -1,560 Descending Toronto Center
04:20PM 43.5833 -79.8667 68° East 310 357 8,500 -1,200 Descending Toronto Center
04:21PM 43.6500 -79.8000 36° Northeast 280 322 8,000 -300 Descending Toronto Center
04:22PM 43.7167 -79.7333 36° Northeast 270 311 8,000 -540 Level Toronto Center
04:23PM 43.7667 -79.6833 36° Northeast 250 288 7,000 -1,380 Descending Toronto Center
04:24PM 43.8000 -79.6167 55° Northeast 240 276 5,300 -1,800 Descending Toronto Center
04:25PM 43.8333 -79.5167 65° Northeast 230 265 3,500 -1,200 Descending Toronto Center
04:26PM 43.7833 -79.5000 166° South 180 207 3,000 -600 Descending Toronto Center
04:27PM 43.7500 -79.5167 200° South 170 196 2,400 -660 Descending Toronto Center
04:28PM 43.7167 -79.5667 227° Southwest 150 173 1,700 -720 Descending Toronto Center
04:29PM 43.7000 -79.5833 216° Southwest 130 150 1,000 -600 Descending Toronto Center
04:30PM 43.6833 -79.6333 245° Southwest 120 138 600 -420 Descending Toronto Center